Terminal Aerodrome Forecast
Issued by NWS

Home | Current Version | Previous Version | Text Only | Print | Product List | Glossary On
Versions: 1 2 3 4 5 6 7 8 9 10 11 12 13 14 15 16 17 18 19 20 21 22 23 24 25 26 27 28 29 30 31 32 33 34 35 36 37 38 39 40 41 42 43 44 45
000
FTUS43 KMKX 291140
TAFUES
TAF
KUES 291140Z 2912/3012 18005KT P6SM SCT050 OVC200
     FM291500 19009KT P6SM VCTS SCT050 BKN100CB
     FM292000 19010KT P6SM SHRA BKN050
     FM300000 20008KT P6SM BKN050
     FM300300 21005KT P6SM SHRA BKN090
     FM300700 27005KT P6SM SHRA OVC030
     FM300900 30004KT 5SM SHRA BR OVC008
     FM301100 36008KT 5SM SHRA BR OVC008=

USA.gov is the U.S. government's official web portal to all federal, state and local government web resources and services.